Time;durP1;ratioP1;P1;durP2;ratioP2;P2;SDS_P1;SDS_P2;PMS_P1;PMS_P2;Temp;Humidity;BMP_temperature;BMP_pressure;BME280_temperature;BME280_humidity;BME280_pressure;Samples;Min_cycle;Max_cycle;Signal;HPM_P1;HPM_P2
2024/01/18 00:00:07;;;;;;;27.70;24.77;;;-1.10;99.90;;;;;;5093130;28;21028;-77
2024/01/18 00:02:36;;;;;;;28.83;25.77;;;-1.10;99.90;;;;;;5093105;28;20828;-76
2024/01/18 00:05:06;;;;;;;28.10;25.30;;;-1.10;99.90;;;;;;5094316;28;20436;-77
2024/01/18 00:07:34;;;;;;;27.30;24.60;;;-1.10;99.90;;;;;;5092909;28;20476;-77
2024/01/18 00:10:03;;;;;;;30.40;26.80;;;-1.20;99.90;;;;;;5092841;28;20457;-77
2024/01/18 00:12:35;;;;;;;28.20;25.47;;;-1.20;99.90;;;;;;5092934;28;20483;-77
2024/01/18 00:15:05;;;;;;;26.73;24.10;;;-1.20;99.90;;;;;;5092835;28;20440;-77
2024/01/18 00:17:34;;;;;;;27.83;25.13;;;-1.20;99.90;;;;;;5094061;28;20820;-77
2024/01/18 00:20:03;;;;;;;28.40;25.43;;;-1.20;99.90;;;;;;5092743;28;20479;-77
2024/01/18 00:22:31;;;;;;;29.50;26.43;;;-1.20;99.90;;;;;;5092600;28;20469;-77
2024/01/18 00:25:00;;;;;;;29.37;26.47;;;-1.20;99.90;;;;;;5094013;28;20789;-77
2024/01/18 00:27:28;;;;;;;30.57;27.47;;;-1.20;99.90;;;;;;5092503;28;20440;-77
2024/01/18 00:29:57;;;;;;;28.93;25.93;;;-1.20;99.90;;;;;;5092574;28;20436;-77
2024/01/18 00:32:26;;;;;;;30.97;27.90;;;-1.20;99.90;;;;;;5092642;28;21007;-77
2024/01/18 00:34:55;;;;;;;29.10;26.20;;;-1.20;99.90;;;;;;5093757;28;20527;-77
2024/01/18 00:37:24;;;;;;;32.37;28.67;;;-1.30;99.90;;;;;;5093621;28;20529;-77
2024/01/18 00:39:52;;;;;;;28.67;25.80;;;-1.30;99.90;;;;;;5093943;28;20432;-76
2024/01/18 00:42:20;;;;;;;30.00;26.83;;;-1.30;99.90;;;;;;5093590;28;20551;-77
2024/01/18 00:44:48;;;;;;;29.70;26.67;;;-1.30;99.90;;;;;;5092323;28;20440;-77
2024/01/18 00:47:17;;;;;;;31.03;27.07;;;-1.30;99.90;;;;;;5093404;28;20448;-77
2024/01/18 00:49:46;;;;;;;31.50;28.37;;;-1.30;99.90;;;;;;5092184;28;20444;-77
2024/01/18 00:52:15;;;;;;;31.07;27.57;;;-1.30;99.90;;;;;;5091547;28;20464;-77
2024/01/18 00:54:43;;;;;;;29.67;26.83;;;-1.30;99.90;;;;;;5092101;28;20444;-77
2024/01/18 00:57:11;;;;;;;30.70;27.47;;;-1.30;99.90;;;;;;5092054;28;20989;-77
2024/01/18 00:59:39;;;;;;;30.63;27.57;;;-1.30;99.90;;;;;;5092122;28;20455;-77
2024/01/18 01:02:08;;;;;;;31.10;27.83;;;-1.30;99.90;;;;;;5091933;28;20475;-77
2024/01/18 01:04:36;;;;;;;31.40;28.17;;;-1.30;99.90;;;;;;5093306;28;20746;-77
2024/01/18 01:07:06;;;;;;;31.37;28.27;;;-1.20;99.90;;;;;;5092012;28;20444;-77
2024/01/18 01:09:34;;;;;;;31.87;28.53;;;-1.30;99.90;;;;;;5091891;28;20898;-77
2024/01/18 01:12:03;;;;;;;28.87;25.93;;;-1.30;99.90;;;;;;5091846;28;20468;-77
2024/01/18 01:14:31;;;;;;;30.30;27.37;;;-1.30;99.90;;;;;;5091946;28;20452;-77
2024/01/18 01:17:00;;;;;;;27.00;24.50;;;-1.30;99.90;;;;;;5092136;28;20460;-77
2024/01/18 01:19:28;;;;;;;31.33;28.13;;;-1.30;99.90;;;;;;5092279;28;20454;-77
2024/01/18 01:21:56;;;;;;;29.80;26.80;;;-1.20;99.90;;;;;;5093738;28;20949;-77
2024/01/18 01:24:26;;;;;;;29.53;26.40;;;-1.30;99.90;;;;;;5092024;28;21119;-77
2024/01/18 01:26:54;;;;;;;30.20;27.03;;;-1.20;99.90;;;;;;5091990;28;20479;-77
2024/01/18 01:29:22;;;;;;;30.80;27.60;;;-1.30;99.90;;;;;;5092282;28;20439;-77
2024/01/18 01:31:51;;;;;;;29.37;26.37;;;-1.20;99.90;;;;;;5093241;28;20461;-77
2024/01/18 01:34:20;;;;;;;30.20;27.00;;;-1.20;99.90;;;;;;5092058;28;20440;-77
2024/01/18 01:36:48;;;;;;;31.47;28.33;;;-1.20;99.90;;;;;;5092013;28;20448;-77
2024/01/18 01:39:16;;;;;;;30.17;26.93;;;-1.20;99.90;;;;;;5092380;28;20829;-77
2024/01/18 01:41:46;;;;;;;29.17;26.27;;;-1.20;99.90;;;;;;5093511;28;20459;-77
2024/01/18 01:44:14;;;;;;;31.30;28.13;;;-1.30;99.90;;;;;;5092379;28;20472;-77
2024/01/18 01:46:43;;;;;;;30.90;27.80;;;-1.30;99.90;;;;;;5092067;28;20552;-77
2024/01/18 01:49:11;;;;;;;29.83;26.83;;;-1.30;99.90;;;;;;5093661;28;20490;-77
2024/01/18 01:51:48;;;;;;;30.50;27.50;;;-1.30;99.90;;;;;;5093395;28;20874;-77
2024/01/18 01:54:17;;;;;;;30.77;27.33;;;-1.30;99.90;;;;;;5092217;28;20478;-77
2024/01/18 01:56:50;;;;;;;32.67;29.57;;;-1.30;99.90;;;;;;5093546;28;21004;-77
2024/01/18 01:59:19;;;;;;;32.23;28.83;;;-1.30;99.90;;;;;;5092272;28;20440;-77
2024/01/18 02:01:49;;;;;;;31.37;28.07;;;-1.30;99.90;;;;;;5092159;28;20461;-77
2024/01/18 02:04:18;;;;;;;32.70;29.40;;;-1.30;99.90;;;;;;5096335;28;20841;-77
2024/01/18 02:06:49;;;;;;;29.70;26.60;;;-1.30;99.90;;;;;;5095847;28;20444;-77
2024/01/18 02:09:18;;;;;;;32.37;29.00;;;-1.30;99.90;;;;;;5096004;28;20452;-77
2024/01/18 02:11:48;;;;;;;32.80;29.43;;;-1.30;99.90;;;;;;5097184;28;20994;-77
2024/01/18 02:14:17;;;;;;;31.07;27.70;;;-1.30;99.90;;;;;;5096832;28;20479;-77
2024/01/18 02:16:45;;;;;;;31.23;28.00;;;-1.30;99.90;;;;;;5096725;28;20443;-77
2024/01/18 02:19:13;;;;;;;31.63;28.30;;;-1.30;99.90;;;;;;5095511;28;20510;-77
2024/01/18 02:21:42;;;;;;;30.37;27.30;;;-1.40;99.90;;;;;;5095605;28;20519;-77
2024/01/18 02:24:18;;;;;;;32.60;29.33;;;-1.30;99.90;;;;;;5096653;28;20531;-77
2024/01/18 02:26:47;;;;;;;29.30;26.40;;;-1.30;99.90;;;;;;5095428;28;20519;-77
2024/01/18 02:29:16;;;;;;;29.90;26.93;;;-1.30;99.90;;;;;;5095508;28;20872;-77
2024/01/18 02:31:44;;;;;;;30.33;27.23;;;-1.40;99.90;;;;;;5095268;28;20471;-77
2024/01/18 02:34:17;;;;;;;29.63;26.80;;;-1.40;99.90;;;;;;5095075;28;20551;-77
2024/01/18 02:36:46;;;;;;;31.63;28.33;;;-1.40;99.90;;;;;;5095137;28;20440;-77
2024/01/18 02:39:14;;;;;;;28.87;26.07;;;-1.40;99.90;;;;;;5094984;28;20518;-76
2024/01/18 02:41:43;;;;;;;29.60;26.50;;;-1.40;99.90;;;;;;5094829;28;20506;-77
2024/01/18 02:44:12;;;;;;;29.23;26.53;;;-1.40;99.90;;;;;;5095029;28;20444;-77
2024/01/18 02:46:41;;;;;;;29.43;26.43;;;-1.40;99.90;;;;;;5096312;28;20502;-77
2024/01/18 02:49:09;;;;;;;30.03;26.93;;;-1.40;99.90;;;;;;5094913;28;20448;-77
2024/01/18 02:51:37;;;;;;;29.00;25.97;;;-1.40;99.90;;;;;;5094812;28;20499;-77
2024/01/18 02:54:05;;;;;;;30.93;27.90;;;-1.50;99.90;;;;;;5094580;28;20971;-77
2024/01/18 02:56:34;;;;;;;27.90;25.10;;;-1.40;99.90;;;;;;5094680;28;20448;-77
2024/01/18 02:59:02;;;;;;;28.97;25.93;;;-1.50;99.90;;;;;;5094680;28;20468;-77
2024/01/18 03:01:32;;;;;;;27.33;24.43;;;-1.50;99.90;;;;;;5094634;28;20521;-77
2024/01/18 03:04:00;;;;;;;26.93;24.20;;;-1.50;99.90;;;;;;5094534;28;20531;-77
2024/01/18 03:06:29;;;;;;;26.67;23.87;;;-1.50;99.90;;;;;;5094597;28;20886;-77
2024/01/18 03:08:57;;;;;;;26.20;23.60;;;-1.50;99.90;;;;;;5094451;28;20937;-77
2024/01/18 03:11:25;;;;;;;25.93;23.43;;;-1.50;99.90;;;;;;5095662;28;20451;-77
2024/01/18 03:13:53;;;;;;;27.57;24.63;;;-1.50;99.90;;;;;;5093776;28;20956;-76
2024/01/18 03:16:22;;;;;;;26.47;23.70;;;-1.50;99.90;;;;;;5095403;28;20440;-77
2024/01/18 03:18:51;;;;;;;28.13;25.10;;;-1.50;99.90;;;;;;5095381;28;20460;-77
2024/01/18 03:21:20;;;;;;;28.23;25.53;;;-1.50;99.90;;;;;;5094134;28;20895;-77
2024/01/18 03:23:48;;;;;;;26.60;23.77;;;-1.50;99.90;;;;;;5094195;28;20436;-77
2024/01/18 03:26:16;;;;;;;26.63;24.00;;;-1.50;99.90;;;;;;5094029;28;20543;-76
2024/01/18 03:28:45;;;;;;;27.00;24.30;;;-1.50;99.90;;;;;;5095460;28;20439;-77
2024/01/18 03:31:13;;;;;;;25.57;22.87;;;-1.50;99.90;;;;;;5093993;28;21014;-77
2024/01/18 03:33:42;;;;;;;25.07;22.53;;;-1.50;99.90;;;;;;5093805;28;20453;-77
2024/01/18 03:36:11;;;;;;;26.17;23.57;;;-1.60;99.90;;;;;;5093783;28;20939;-76
2024/01/18 03:38:40;;;;;;;25.63;22.87;;;-1.60;99.90;;;;;;5093645;28;20467;-77
2024/01/18 03:41:08;;;;;;;27.80;24.90;;;-1.60;99.90;;;;;;5093552;28;20988;-77
2024/01/18 03:43:36;;;;;;;26.10;23.30;;;-1.60;99.90;;;;;;5094900;28;20493;-77
2024/01/18 03:46:04;;;;;;;29.43;24.90;;;-1.60;99.90;;;;;;5093510;28;20495;-77
2024/01/18 03:48:33;;;;;;;26.50;23.70;;;-1.60;99.90;;;;;;5093566;28;20472;-76
2024/01/18 03:51:01;;;;;;;29.87;25.90;;;-1.70;99.90;;;;;;5093429;28;20981;-77
2024/01/18 03:53:30;;;;;;;25.87;23.10;;;-1.70;99.90;;;;;;5094944;28;20443;-76
2024/01/18 03:55:59;;;;;;;28.40;25.37;;;-1.70;99.90;;;;;;5093418;28;20481;-77
2024/01/18 03:58:27;;;;;;;29.67;26.53;;;-1.70;99.90;;;;;;5094550;28;20468;-77
2024/01/18 04:00:56;;;;;;;28.73;25.73;;;-1.70;99.90;;;;;;5093123;28;20468;-77
2024/01/18 04:03:25;;;;;;;28.63;25.73;;;-1.80;99.90;;;;;;5094694;28;20472;-77
2024/01/18 04:05:53;;;;;;;27.60;24.33;;;-1.80;99.90;;;;;;5093235;28;20953;-76
2024/01/18 04:08:22;;;;;;;28.57;25.57;;;-1.80;99.90;;;;;;5094660;28;20535;-76
2024/01/18 04:10:52;;;;;;;27.73;24.83;;;-1.80;99.90;;;;;;5094472;28;20517;-76
2024/01/18 04:13:20;;;;;;;27.43;24.70;;;-1.80;99.90;;;;;;5093384;28;20458;-77
2024/01/18 04:15:48;;;;;;;31.10;27.90;;;-1.90;99.90;;;;;;5093086;28;20519;-77
2024/01/18 04:18:16;;;;;;;32.93;28.57;;;-1.90;99.90;;;;;;5094208;28;20531;-77
2024/01/18 04:20:45;;;;;;;32.87;29.30;;;-1.90;99.90;;;;;;5093123;28;20809;-77
2024/01/18 04:23:13;;;;;;;36.50;32.00;;;-1.90;99.90;;;;;;5094146;28;20440;-77
2024/01/18 04:25:41;;;;;;;34.93;29.87;;;-1.90;99.90;;;;;;5092027;28;20455;-77
2024/01/18 04:28:11;;;;;;;35.07;26.20;;;-1.90;99.90;;;;;;5092799;28;20586;-77
2024/01/18 04:30:39;;;;;;;28.80;25.80;;;-2.00;99.90;;;;;;5092733;28;20476;-75
2024/01/18 04:33:07;;;;;;;27.13;24.33;;;-2.00;99.90;;;;;;5093904;28;20432;-76
2024/01/18 04:35:36;;;;;;;27.40;24.67;;;-2.00;99.90;;;;;;5092691;28;20448;-77
2024/01/18 04:38:04;;;;;;;27.17;24.50;;;-2.00;99.90;;;;;;5092633;28;20488;-77
2024/01/18 04:40:33;;;;;;;26.03;23.40;;;-2.00;99.90;;;;;;5092524;28;21024;-77
2024/01/18 04:43:01;;;;;;;27.87;25.00;;;-2.10;99.90;;;;;;5094197;28;20536;-77
2024/01/18 04:45:30;;;;;;;26.70;23.90;;;-2.10;99.90;;;;;;5092454;28;20949;-77
2024/01/18 04:48:00;;;;;;;25.83;23.27;;;-2.10;99.90;;;;;;5092380;28;20452;-77
2024/01/18 04:50:28;;;;;;;29.10;26.30;;;-2.10;99.90;;;;;;5092416;28;20448;-77
2024/01/18 04:52:57;;;;;;;28.03;24.93;;;-2.10;99.90;;;;;;5092551;28;20453;-77
2024/01/18 04:55:28;;;;;;;30.97;25.07;;;-2.20;99.90;;;;;;5092589;28;20455;-77
2024/01/18 04:57:58;;;;;;;29.00;24.90;;;-2.20;99.90;;;;;;5092435;28;20444;-77
2024/01/18 05:00:26;;;;;;;26.23;23.70;;;-2.20;99.90;;;;;;5092296;28;20567;-77
2024/01/18 05:02:56;;;;;;;28.57;25.57;;;-2.20;99.90;;;;;;5092270;28;20506;-77
2024/01/18 05:05:24;;;;;;;27.10;24.23;;;-2.20;99.90;;;;;;5093665;28;20624;-76
2024/01/18 05:07:53;;;;;;;29.57;25.10;;;-2.20;99.90;;;;;;5092492;28;20497;-77
2024/01/18 05:10:21;;;;;;;27.47;24.10;;;-2.30;99.90;;;;;;5092173;28;20476;-77
2024/01/18 05:12:49;;;;;;;28.60;24.20;;;-2.30;99.90;;;;;;5092308;28;20468;-76
2024/01/18 05:15:18;;;;;;;26.50;23.70;;;-2.30;99.90;;;;;;5094116;28;20442;-77
2024/01/18 05:17:48;;;;;;;27.90;25.03;;;-2.30;99.90;;;;;;5093578;28;20837;-77
2024/01/18 05:20:18;;;;;;;28.27;24.87;;;-2.30;99.90;;;;;;5093922;28;20464;-77
2024/01/18 05:22:46;;;;;;;30.50;27.40;;;-2.30;99.90;;;;;;5093469;28;20456;-77
2024/01/18 05:25:14;;;;;;;31.53;28.43;;;-2.30;99.90;;;;;;5092293;28;20451;-77
2024/01/18 05:27:43;;;;;;;29.20;26.30;;;-2.40;99.90;;;;;;5092177;28;20448;-77
2024/01/18 05:30:13;;;;;;;27.03;24.10;;;-2.40;99.90;;;;;;5092433;28;20857;-76
2024/01/18 05:32:41;;;;;;;26.17;23.77;;;-2.40;99.90;;;;;;5093545;28;20960;-77
2024/01/18 05:35:09;;;;;;;27.10;24.23;;;-2.40;99.90;;;;;;5093281;28;20535;-77
2024/01/18 05:37:39;;;;;;;30.80;25.80;;;-2.40;99.90;;;;;;5093423;28;20452;-77
2024/01/18 05:40:08;;;;;;;27.03;24.33;;;-2.40;99.90;;;;;;5095884;28;20837;-76
2024/01/18 05:42:37;;;;;;;23.03;20.80;;;-2.40;99.90;;;;;;5097371;28;20948;-77
2024/01/18 05:45:06;;;;;;;28.30;25.17;;;-2.40;99.90;;;;;;5095933;28;20453;-77
2024/01/18 05:47:35;;;;;;;28.07;24.90;;;-2.40;99.90;;;;;;5095915;28;20452;-77
2024/01/18 05:50:05;;;;;;;27.10;23.93;;;-2.50;99.90;;;;;;5095812;28;20517;-77
2024/01/18 05:52:34;;;;;;;28.07;25.13;;;-2.40;99.90;;;;;;5095691;28;20499;-77
2024/01/18 05:55:04;;;;;;;27.20;24.40;;;-2.50;99.90;;;;;;5097173;28;20505;-77
2024/01/18 05:57:32;;;;;;;27.57;24.93;;;-2.50;99.90;;;;;;5096988;28;20432;-77
2024/01/18 06:00:01;;;;;;;28.83;23.80;;;-2.50;99.90;;;;;;5095490;28;20862;-76
2024/01/18 06:02:32;;;;;;;27.83;24.90;;;-2.50;99.90;;;;;;5096924;28;20452;-76
2024/01/18 06:05:00;;;;;;;29.03;25.90;;;-2.50;99.90;;;;;;5096982;28;20470;-77
2024/01/18 06:07:29;;;;;;;29.40;26.30;;;-2.50;99.90;;;;;;5095472;28;20440;-77
2024/01/18 06:09:59;;;;;;;27.97;23.90;;;-2.50;99.90;;;;;;5095438;28;20476;-76
2024/01/18 06:12:29;;;;;;;28.17;24.87;;;-2.50;99.90;;;;;;5095362;28;21019;-77
2024/01/18 06:14:57;;;;;;;30.13;24.80;;;-2.50;99.90;;;;;;5095321;28;20502;-77
2024/01/18 06:17:26;;;;;;;27.30;24.30;;;-2.50;99.90;;;;;;5096569;28;20436;-77
2024/01/18 06:19:55;;;;;;;27.10;24.17;;;-2.50;99.90;;;;;;5096716;28;20476;-76
2024/01/18 06:22:24;;;;;;;30.07;23.53;;;-2.50;99.90;;;;;;5095108;28;20467;-76
2024/01/18 06:24:52;;;;;;;30.10;23.40;;;-2.50;99.90;;;;;;5095245;28;20448;-77
2024/01/18 06:27:22;;;;;;;20.73;18.63;;;-2.50;99.90;;;;;;5095143;28;20487;-76
2024/01/18 06:29:52;;;;;;;26.00;23.30;;;-2.50;99.90;;;;;;5095165;28;20444;-76
2024/01/18 06:32:21;;;;;;;26.07;23.47;;;-2.50;99.90;;;;;;5095046;28;20463;-76
2024/01/18 06:34:49;;;;;;;25.83;23.13;;;-2.50;99.90;;;;;;5096224;28;20527;-77
2024/01/18 06:37:17;;;;;;;25.43;22.73;;;-2.50;99.90;;;;;;5094971;28;20489;-76
2024/01/18 06:39:46;;;;;;;26.50;23.70;;;-2.50;99.90;;;;;;5094814;28;20502;-76
2024/01/18 06:42:16;;;;;;;26.30;23.60;;;-2.50;99.90;;;;;;5094781;28;20464;-76
2024/01/18 06:44:45;;;;;;;27.87;24.87;;;-2.50;99.90;;;;;;5094838;28;20489;-77
2024/01/18 06:47:15;;;;;;;25.47;22.83;;;-2.50;99.90;;;;;;5094712;28;20535;-77
2024/01/18 06:49:43;;;;;;;26.17;23.20;;;-2.50;99.90;;;;;;5094936;28;20528;-77
2024/01/18 06:52:11;;;;;;;28.50;25.47;;;-2.50;99.90;;;;;;5094623;28;20494;-77
2024/01/18 06:54:43;;;;;;;28.07;25.17;;;-2.50;99.90;;;;;;5094645;28;20448;-77
2024/01/18 06:57:11;;;;;;;26.10;23.40;;;-2.50;99.90;;;;;;5094527;28;20494;-77
2024/01/18 06:59:45;;;;;;;26.27;23.47;;;-2.50;99.90;;;;;;5094546;28;20506;-77
2024/01/18 07:02:15;;;;;;;25.03;22.33;;;-2.60;99.90;;;;;;5095298;28;20467;-77
2024/01/18 07:04:43;;;;;;;24.00;21.53;;;-2.60;99.90;;;;;;5095623;28;20448;-77
2024/01/18 07:07:12;;;;;;;26.93;24.00;;;-2.60;99.90;;;;;;5094328;28;20823;-76
2024/01/18 07:09:40;;;;;;;26.07;23.40;;;-2.60;99.90;;;;;;5095554;28;20486;-77
2024/01/18 07:12:10;;;;;;;25.37;22.43;;;-2.60;99.90;;;;;;5094550;28;20456;-76
2024/01/18 07:14:39;;;;;;;25.07;22.37;;;-2.60;99.90;;;;;;5095834;28;20479;-76
2024/01/18 07:17:07;;;;;;;25.10;22.70;;;-2.60;99.90;;;;;;5094141;28;20497;-76
2024/01/18 07:19:37;;;;;;;26.60;23.80;;;-2.60;99.90;;;;;;5095499;28;20795;-76
2024/01/18 07:22:07;;;;;;;24.60;21.93;;;-2.60;99.90;;;;;;5095307;28;20476;-77
2024/01/18 07:24:36;;;;;;;26.23;23.00;;;-2.60;99.90;;;;;;5095609;28;20439;-77
2024/01/18 07:27:09;;;;;;;23.10;20.77;;;-2.60;99.90;;;;;;5094114;28;20501;-77
2024/01/18 07:29:37;;;;;;;24.30;21.27;;;-2.60;99.90;;;;;;5095663;28;20927;-76
2024/01/18 07:32:06;;;;;;;27.00;22.63;;;-2.60;99.90;;;;;;5094147;28;20873;-77
2024/01/18 07:34:36;;;;;;;25.57;22.60;;;-2.60;99.90;;;;;;5094029;28;20459;-77
2024/01/18 07:37:05;;;;;;;23.93;21.53;;;-2.60;99.90;;;;;;5093875;28;20538;-76
2024/01/18 07:39:36;;;;;;;21.93;19.63;;;-2.60;99.90;;;;;;5093858;28;20466;-76
2024/01/18 07:42:06;;;;;;;22.57;20.27;;;-2.60;99.90;;;;;;5093650;28;20483;-76
2024/01/18 07:44:34;;;;;;;23.00;20.60;;;-2.60;99.90;;;;;;5093768;28;20533;-76
2024/01/18 07:47:03;;;;;;;22.50;20.20;;;-2.60;99.90;;;;;;5093498;28;20563;-77
2024/01/18 07:49:31;;;;;;;22.77;20.10;;;-2.60;99.90;;;;;;5093625;28;20544;-76
2024/01/18 07:52:01;;;;;;;22.13;19.80;;;-2.60;99.90;;;;;;5093374;28;20468;-76
2024/01/18 07:54:29;;;;;;;25.17;20.50;;;-2.60;99.90;;;;;;5093570;28;20449;-77
2024/01/18 07:56:57;;;;;;;23.03;20.63;;;-2.60;99.90;;;;;;5094735;28;20479;-77
2024/01/18 07:59:25;;;;;;;23.10;20.80;;;-2.60;99.90;;;;;;5093496;28;20801;-76
2024/01/18 08:01:53;;;;;;;24.70;19.57;;;-2.60;99.90;;;;;;5094309;28;20578;-77
2024/01/18 08:04:22;;;;;;;25.40;21.10;;;-2.60;99.90;;;;;;5093148;28;20451;-76
2024/01/18 08:06:50;;;;;;;21.83;19.53;;;-2.60;99.90;;;;;;5094493;28;20443;-77
2024/01/18 08:09:20;;;;;;;21.53;19.33;;;-2.60;99.90;;;;;;5093174;28;20452;-76
2024/01/18 08:11:49;;;;;;;23.73;19.87;;;-2.60;99.90;;;;;;5093119;28;20474;-77
2024/01/18 08:14:17;;;;;;;20.57;18.43;;;-2.50;99.90;;;;;;5094423;28;20449;-77
2024/01/18 08:16:45;;;;;;;22.73;20.27;;;-2.50;99.90;;;;;;5092995;28;20432;-76
2024/01/18 08:19:14;;;;;;;21.90;19.60;;;-2.50;99.90;;;;;;5094544;28;20444;-76
2024/01/18 08:21:44;;;;;;;24.40;19.97;;;-2.50;99.90;;;;;;5093221;28;20837;-77
2024/01/18 08:24:13;;;;;;;22.83;18.80;;;-2.50;99.90;;;;;;5094952;28;20459;-77
2024/01/18 08:26:43;;;;;;;25.07;20.30;;;-2.50;99.90;;;;;;5092913;28;20830;-77
2024/01/18 08:29:11;;;;;;;21.83;19.53;;;-2.40;99.90;;;;;;5094553;28;20425;-77
2024/01/18 08:31:40;;;;;;;23.63;20.97;;;-2.40;99.90;;;;;;5092798;28;20900;-76
2024/01/18 08:34:09;;;;;;;28.27;22.30;;;-2.40;99.90;;;;;;5094334;28;20493;-76
2024/01/18 08:36:38;;;;;;;26.73;23.27;;;-2.40;99.90;;;;;;5093940;28;20475;-76
2024/01/18 08:39:07;;;;;;;26.20;20.30;;;-2.30;99.90;;;;;;5094204;28;20444;-76
2024/01/18 08:41:36;;;;;;;25.67;20.43;;;-2.30;99.90;;;;;;5092511;28;20475;-76
2024/01/18 08:44:06;;;;;;;26.33;20.30;;;-2.30;99.90;;;;;;5092699;28;20493;-77
2024/01/18 08:46:34;;;;;;;22.13;19.60;;;-2.20;99.90;;;;;;5092517;28;20504;-77
2024/01/18 08:49:02;;;;;;;23.47;20.43;;;-2.20;99.90;;;;;;5093852;28;20482;-77
2024/01/18 08:51:31;;;;;;;20.00;17.87;;;-2.10;99.90;;;;;;5093887;28;20464;-77
2024/01/18 08:53:59;;;;;;;22.27;19.90;;;-2.10;99.90;;;;;;5092860;28;20787;-76
2024/01/18 08:56:27;;;;;;;22.27;19.83;;;-2.10;99.90;;;;;;5093731;28;20436;-76
2024/01/18 08:58:59;;;;;;;23.03;20.60;;;-2.10;99.90;;;;;;5093792;28;20424;-77
2024/01/18 09:01:28;;;;;;;22.53;20.00;;;-2.10;99.90;;;;;;5092214;28;20480;-77
2024/01/18 09:03:57;;;;;;;22.37;20.27;;;-2.10;99.90;;;;;;5092352;28;20436;-77
2024/01/18 09:06:25;;;;;;;16.13;13.80;;;-2.00;99.90;;;;;;5092449;28;20886;-77
2024/01/18 09:08:54;;;;;;;20.40;16.50;;;-2.00;99.90;;;;;;5092403;28;20873;-77
2024/01/18 09:11:22;;;;;;;19.57;15.90;;;-2.00;99.90;;;;;;5092192;28;20475;-77
2024/01/18 09:13:51;;;;;;;18.93;17.10;;;-1.90;99.90;;;;;;5092046;28;20447;-77
2024/01/18 09:16:19;;;;;;;17.60;15.70;;;-1.90;99.90;;;;;;5092718;28;20497;-77
2024/01/18 09:18:49;;;;;;;17.00;15.27;;;-1.80;99.90;;;;;;5092598;28;21048;-76
2024/01/18 09:21:42;;;;;;;17.53;15.07;;;-1.80;99.90;;;;;;5092081;28;20464;-76
2024/01/18 09:24:10;;;;;;;17.30;15.43;;;-1.80;99.90;;;;;;5095767;28;20413;-77
2024/01/18 09:26:39;;;;;;;18.60;16.43;;;-1.70;99.90;;;;;;5096765;28;20490;-77
2024/01/18 09:29:07;;;;;;;17.47;15.77;;;-1.70;99.90;;;;;;5094095;28;20476;-76
2024/01/18 09:31:35;;;;;;;16.07;14.40;;;-1.60;99.90;;;;;;5092573;28;20873;-77
2024/01/18 09:34:11;;;;;;;15.10;13.50;;;-1.60;99.90;;;;;;5093800;28;20841;-76
2024/01/18 09:36:40;;;;;;;14.40;13.00;;;-1.60;99.90;;;;;;5093474;28;20437;-76
2024/01/18 09:39:15;;;;;;;16.00;14.30;;;-1.50;99.90;;;;;;5092413;28;20519;-77
2024/01/18 09:41:49;;;;;;;16.03;12.40;;;-1.50;99.90;;;;;;5094106;28;20956;-76
2024/01/18 09:44:23;;;;;;;13.27;12.07;;;-1.40;99.90;;;;;;5092764;28;20484;-76
2024/01/18 09:46:53;;;;;;;14.77;13.17;;;-1.40;99.90;;;;;;5093046;28;20548;-76
2024/01/18 09:49:23;;;;;;;16.93;11.97;;;-1.30;99.90;;;;;;5093138;28;20961;-77
2024/01/18 09:51:52;;;;;;;14.10;12.50;;;-1.30;99.90;;;;;;5092771;28;20466;-76
2024/01/18 09:54:20;;;;;;;13.43;11.60;;;-1.30;99.90;;;;;;5093865;28;20454;-77
2024/01/18 09:56:52;;;;;;;14.27;12.57;;;-1.20;99.90;;;;;;5095003;28;20440;-77
2024/01/18 09:59:23;;;;;;;15.83;12.80;;;-1.20;99.90;;;;;;5095492;28;20456;-77
2024/01/18 10:01:51;;;;;;;12.37;11.07;;;-1.10;99.90;;;;;;5093970;28;20468;-77
2024/01/18 10:04:20;;;;;;;14.73;12.20;;;-1.00;99.90;;;;;;5093965;28;20803;-77
2024/01/18 10:06:50;;;;;;;13.57;11.53;;;-1.00;99.90;;;;;;5094237;28;20527;-77
2024/01/18 10:09:19;;;;;;;13.90;12.40;;;-0.90;99.90;;;;;;5094136;28;20800;-77
2024/01/18 10:11:47;;;;;;;13.20;12.00;;;-0.80;99.90;;;;;;5095988;28;20819;-77
2024/01/18 10:14:16;;;;;;;12.70;11.40;;;-0.80;99.90;;;;;;5094283;28;20456;-77
2024/01/18 10:16:44;;;;;;;13.60;12.20;;;-0.70;99.90;;;;;;5094984;28;20976;-77
2024/01/18 10:19:14;;;;;;;13.30;11.30;;;-0.70;99.90;;;;;;5095261;28;20436;-77
2024/01/18 10:21:44;;;;;;;11.50;10.40;;;-0.60;99.90;;;;;;5096652;28;20560;-77
2024/01/18 10:24:17;;;;;;;13.90;12.23;;;-0.50;99.90;;;;;;5098366;28;20537;-77
2024/01/18 10:26:46;;;;;;;14.97;12.47;;;-0.50;99.90;;;;;;5101117;28;20450;-78
2024/01/18 10:29:14;;;;;;;14.37;11.83;;;-0.50;99.90;;;;;;5102564;28;20467;-78
2024/01/18 10:31:42;;;;;;;14.33;10.80;;;-0.30;99.90;;;;;;5101879;28;20475;-77
2024/01/18 10:34:11;;;;;;;10.90;9.77;;;-0.30;99.90;;;;;;5103874;28;20435;-77
2024/01/18 10:36:39;;;;;;;12.43;11.23;;;-0.30;99.90;;;;;;5102002;28;20448;-78
2024/01/18 10:39:20;;;;;;;10.53;9.37;;;-0.20;99.90;;;;;;5102807;28;20456;-77
2024/01/18 10:41:48;;;;;;;11.73;10.30;;;-0.10;99.90;;;;;;5102366;28;20460;-77
2024/01/18 10:44:17;;;;;;;13.57;9.53;;;-0.10;99.90;;;;;;5106196;28;20436;-77
2024/01/18 10:46:47;;;;;;;10.03;9.03;;;-0.10;99.90;;;;;;5102940;28;20463;-77
2024/01/18 10:49:16;;;;;;;10.80;9.53;;;0.00;99.90;;;;;;5105049;28;20515;-78
2024/01/18 10:51:44;;;;;;;9.33;8.30;;;0.10;99.90;;;;;;5103391;28;20520;-77
2024/01/18 10:54:14;;;;;;;8.93;7.97;;;0.10;99.90;;;;;;5103853;28;20474;-77
2024/01/18 10:56:59;;;;;;;8.43;7.63;;;0.20;99.90;;;;;;5104123;28;20842;-78
2024/01/18 10:59:29;;;;;;;8.87;8.07;;;0.20;99.90;;;;;;5104512;28;20418;-78
2024/01/18 11:01:59;;;;;;;7.73;6.93;;;0.20;99.90;;;;;;5102761;28;20868;-78
2024/01/18 11:04:28;;;;;;;10.20;8.10;;;0.30;99.90;;;;;;5104310;28;20449;-77
2024/01/18 11:06:57;;;;;;;10.17;7.67;;;0.40;99.90;;;;;;5103476;28;20456;-78
2024/01/18 11:09:28;;;;;;;8.40;7.60;;;0.40;99.90;;;;;;5104238;28;20545;-78
2024/01/18 11:11:59;;;;;;;7.77;7.00;;;0.50;99.90;;;;;;5103906;28;20462;-77
2024/01/18 11:14:29;;;;;;;7.53;6.83;;;0.50;99.90;;;;;;5103549;28;20530;-78
2024/01/18 11:17:00;;;;;;;9.37;6.53;;;0.60;99.90;;;;;;5104541;28;20436;-77
2024/01/18 11:19:40;;;;;;;8.07;6.80;;;0.60;99.90;;;;;;5103198;28;20491;-78
2024/01/18 11:22:11;;;;;;;7.20;6.27;;;0.70;99.90;;;;;;5103419;28;20460;-78
2024/01/18 11:24:39;;;;;;;8.20;6.97;;;0.70;99.90;;;;;;5104059;28;20441;-77
2024/01/18 11:27:21;;;;;;;7.70;6.93;;;0.80;99.90;;;;;;5104288;28;21005;-78
2024/01/18 11:29:50;;;;;;;7.87;6.40;;;0.90;99.90;;;;;;5104375;28;20450;-77
2024/01/18 11:32:20;;;;;;;6.33;5.83;;;1.00;99.90;;;;;;5105977;28;20537;-78
2024/01/18 11:34:49;;;;;;;9.37;6.27;;;1.10;99.90;;;;;;5105196;28;20454;-80
2024/01/18 11:37:20;;;;;;;6.27;5.47;;;1.10;99.90;;;;;;5106862;28;20891;-78
2024/01/18 11:39:56;;;;;;;5.87;5.10;;;1.20;99.90;;;;;;5108093;28;20448;-78
2024/01/18 11:42:28;;;;;;;6.13;5.53;;;1.20;99.90;;;;;;5107699;28;20482;-78
2024/01/18 11:45:04;;;;;;;8.77;5.17;;;1.20;99.90;;;;;;5106075;28;20440;-78
2024/01/18 11:47:33;;;;;;;5.10;4.47;;;1.20;99.90;;;;;;5107482;28;20973;-78
2024/01/18 11:50:05;;;;;;;5.50;4.40;;;1.30;99.90;;;;;;5107756;28;20448;-78
2024/01/18 11:52:35;;;;;;;5.73;4.97;;;1.30;99.90;;;;;;5107394;28;20475;-78
2024/01/18 11:55:05;;;;;;;3.97;3.57;;;1.30;99.90;;;;;;5108940;28;20449;-79
2024/01/18 11:57:35;;;;;;;5.20;3.83;;;1.30;99.90;;;;;;5108240;28;20882;-78
2024/01/18 12:00:04;;;;;;;5.30;4.70;;;1.30;99.90;;;;;;5109899;28;20450;-78
2024/01/18 12:02:39;;;;;;;5.10;3.53;;;1.40;99.90;;;;;;5110784;28;20609;-79
2024/01/18 12:05:08;;;;;;;4.53;3.33;;;1.40;99.90;;;;;;5109525;28;20455;-79
2024/01/18 12:07:38;;;;;;;4.60;3.57;;;1.40;99.90;;;;;;5111108;28;20504;-78
2024/01/18 12:10:09;;;;;;;3.73;2.80;;;1.50;99.90;;;;;;5111961;28;20440;-79
2024/01/18 12:12:41;;;;;;;3.40;3.10;;;1.50;99.90;;;;;;5113227;28;20485;-78
2024/01/18 12:15:17;;;;;;;3.20;2.90;;;1.60;99.90;;;;;;5118272;28;20419;-79
2024/01/18 12:17:47;;;;;;;4.93;3.40;;;1.60;99.90;;;;;;5117910;28;20442;-79
2024/01/18 12:20:16;;;;;;;5.83;2.83;;;1.80;99.90;;;;;;5107277;28;20535;-79
2024/01/18 12:22:45;;;;;;;3.07;2.30;;;1.70;99.90;;;;;;5107643;28;20490;-78
2024/01/18 12:25:13;;;;;;;2.90;2.43;;;1.80;99.90;;;;;;5107418;28;20439;-80
2024/01/18 12:27:43;;;;;;;1.90;1.33;;;1.90;99.90;;;;;;5106300;28;20469;-80
2024/01/18 12:30:12;;;;;;;2.70;1.37;;;1.90;99.90;;;;;;5105799;28;20473;-79
2024/01/18 12:32:42;;;;;;;2.00;1.57;;;1.90;99.90;;;;;;5106202;28;20894;-79
2024/01/18 12:35:11;;;;;;;3.30;1.30;;;2.00;99.90;;;;;;5106031;28;20544;-79
2024/01/18 12:37:40;;;;;;;2.30;1.10;;;1.90;99.90;;;;;;5105084;28;20454;-80
2024/01/18 12:40:10;;;;;;;1.87;1.13;;;1.90;99.90;;;;;;5104923;28;20440;-79